Airfield :
LOGIN :

Register | Disclaimer

   EN    FR    IT 

 










Legend :    VFR   Marginal VFR   IFR   Intensive IFR   Very Intensive IFR
Visi :
Ceiling :
>= 8 km
>= 3000ft
5 to 8 km
1000 to 3000 ft
1500m to 5 km
500 to 1000 ft
800 to 1500m
200 to 500 ft
< 800m
< 200 ft
Symbols :   Thunderstorms  Fog  Heavy snow  Heavy precipitations  Wind > 20 kt
SIGMETs :     Misc.  Thunderstorms  Icing  Turbulence  Mountain Waves  Volcanic Ashes







- Airport Elevation : 129 ft
- IATA code : ZPQ


ETHE - Rheine Bentlage

CURRENT METAR :
  • 251720Z AUTO 26008KT //// // ////// 08/M02 Q1009 ///

EXPIRED METARs :
  • 251620Z AUTO 28016KT //// // ////// 07/M03 Q1009 ///
  • 251520Z AUTO 31007KT //// // ////// 08/01 Q1008 ///

TAF AMD TAF ETHE
Valid from the 25 at 14:00 until the 25 at 23:00 UTC


251304Z 2514/2523 28012G22KT 9999 NSW FEW020 SCT040
TEMPO 2514/2518 29015G25KT 7000 SHGS SCT015 BKN025CB CANCEL 1400
No reported NOTAMs for that airfield.



MET'MAP, your aeronautical weather chart ! - Copyright ORBIFLY December 2007 - Disclaimer

ORBIFLY MET'MAP TEAM :

Programming & Development : Alexandra Zaïnal
Concept & Development : Baudouin d'Aumeries
Co-Development & Prog : Marc-Olivier Méhu
Technical & hardware support : Manuel Goepfert

Contact : metmap@orbifly.com




SOURCES & CREDITS :

   NOAA